createdAt,value
2019-03-27T00:01:53.115Z,99.90
2019-03-27T00:04:33.663Z,99.90
2019-03-27T00:07:14.539Z,99.90
2019-03-27T00:09:55.109Z,99.90
2019-03-27T00:12:36.025Z,99.90
2019-03-27T00:15:29.592Z,99.90
2019-03-27T00:18:17.990Z,99.90
2019-03-27T00:21:06.299Z,99.90
2019-03-27T00:23:54.800Z,99.90
2019-03-27T00:26:43.113Z,99.90
2019-03-27T00:29:31.456Z,99.90
2019-03-27T00:32:19.838Z,99.90
2019-03-27T00:35:08.403Z,99.90
2019-03-27T00:37:56.885Z,99.90
2019-03-27T00:40:45.282Z,99.90
2019-03-27T00:43:33.681Z,99.90
2019-03-27T00:46:22.004Z,99.90
2019-03-27T00:49:10.337Z,99.90
2019-03-27T00:51:39.754Z,99.90
2019-03-27T00:54:28.072Z,99.90
2019-03-27T00:57:16.529Z,99.90
2019-03-27T01:03:33.809Z,99.90
2019-03-27T01:06:22.154Z,99.90
2019-03-27T01:12:06.103Z,99.90
2019-03-27T01:14:54.412Z,99.90
2019-03-27T01:17:35.032Z,99.90
2019-03-27T01:20:15.803Z,99.90
2019-03-27T01:22:56.519Z,99.90
2019-03-27T01:25:37.187Z,99.90
2019-03-27T01:28:17.986Z,99.90
2019-03-27T01:30:58.932Z,99.90
2019-03-27T01:33:39.952Z,99.90
2019-03-27T01:36:20.594Z,99.90
2019-03-27T01:39:01.474Z,99.90
2019-03-27T01:41:42.384Z,99.90
2019-03-27T01:44:23.229Z,99.90
2019-03-27T01:47:04.042Z,99.90
2019-03-27T01:49:44.682Z,99.90
2019-03-27T01:52:25.397Z,99.90
2019-03-27T01:55:06.235Z,99.90
2019-03-27T01:57:46.701Z,99.90
2019-03-27T02:00:27.624Z,99.90
2019-03-27T02:03:08.108Z,99.90
2019-03-27T02:05:48.679Z,99.90
2019-03-27T02:08:29.792Z,99.90
2019-03-27T02:11:12.060Z,99.90
2019-03-27T02:13:52.725Z,99.90
2019-03-27T02:16:33.711Z,99.90
2019-03-27T02:19:15.509Z,99.90
2019-03-27T02:21:56.296Z,99.90
2019-03-27T02:24:37.062Z,99.90
2019-03-27T02:27:17.753Z,99.90
2019-03-27T02:29:58.500Z,99.90
2019-03-27T02:32:39.625Z,99.90
2019-03-27T02:35:20.796Z,99.90
2019-03-27T02:38:01.523Z,99.90
2019-03-27T02:40:42.939Z,99.90
2019-03-27T02:43:23.678Z,99.90
2019-03-27T02:46:04.651Z,99.90
2019-03-27T02:48:45.459Z,99.90
2019-03-27T02:51:26.372Z,99.90
2019-03-27T02:54:06.981Z,99.90
2019-03-27T02:56:48.042Z,99.90
2019-03-27T02:59:28.898Z,99.90
2019-03-27T03:02:10.354Z,99.90
2019-03-27T03:04:51.223Z,99.90
2019-03-27T03:07:31.762Z,99.90
2019-03-27T03:10:12.613Z,99.90
2019-03-27T03:12:53.330Z,99.90
2019-03-27T03:15:34.315Z,99.90
2019-03-27T03:18:14.941Z,99.90
2019-03-27T03:20:55.488Z,99.90
2019-03-27T03:23:36.319Z,99.90
2019-03-27T03:26:17.136Z,99.90
2019-03-27T03:28:58.335Z,99.90
2019-03-27T03:31:39.155Z,99.90
2019-03-27T03:34:19.753Z,99.90
2019-03-27T03:37:00.551Z,99.90
2019-03-27T03:39:41.344Z,99.90
2019-03-27T03:42:22.126Z,99.90
2019-03-27T03:45:02.929Z,99.90
2019-03-27T03:47:44.017Z,99.90
2019-03-27T03:50:24.862Z,99.90
2019-03-27T03:53:05.749Z,99.90
2019-03-27T03:55:46.341Z,99.90
2019-03-27T03:58:27.175Z,99.90
2019-03-27T04:01:08.030Z,99.90
2019-03-27T04:03:48.826Z,99.90
2019-03-27T04:06:29.372Z,99.90
2019-03-27T04:09:10.218Z,99.90
2019-03-27T04:14:34.304Z,99.90
2019-03-27T04:17:17.394Z,99.90
2019-03-27T04:19:57.805Z,99.90
2019-03-27T04:22:39.096Z,99.90
2019-03-27T04:25:20.999Z,99.90
2019-03-27T04:28:01.443Z,99.90
2019-03-27T04:30:42.170Z,99.90
2019-03-27T04:33:22.772Z,99.90
2019-03-27T04:36:03.775Z,99.90
2019-03-27T04:38:44.914Z,99.90
2019-03-27T04:41:25.550Z,99.90
2019-03-27T04:44:06.826Z,99.90
2019-03-27T04:46:47.920Z,99.90
2019-03-27T04:52:10.938Z,99.90
2019-03-27T04:54:40.315Z,99.90
2019-03-27T04:57:28.693Z,99.90
2019-03-27T05:00:17.083Z,99.90
2019-03-27T05:03:06.175Z,99.90
2019-03-27T05:05:54.701Z,99.90
2019-03-27T05:08:43.110Z,99.90
2019-03-27T05:11:31.494Z,99.90
2019-03-27T05:14:19.886Z,99.90
2019-03-27T05:17:08.619Z,99.90
2019-03-27T05:19:57.005Z,99.90
2019-03-27T05:22:37.479Z,99.90
2019-03-27T05:25:18.242Z,99.90
2019-03-27T05:27:59.523Z,99.90
2019-03-27T05:30:40.298Z,99.90
2019-03-27T05:33:20.843Z,99.90
2019-03-27T05:36:01.358Z,99.90
2019-03-27T05:38:42.026Z,99.90
2019-03-27T05:41:22.439Z,99.90
2019-03-27T05:44:02.938Z,99.90
2019-03-27T05:46:43.742Z,99.90
2019-03-27T05:49:24.784Z,99.90
2019-03-27T05:51:54.704Z,99.90
2019-03-27T05:54:43.099Z,99.90
2019-03-27T05:57:31.424Z,99.90
2019-03-27T06:00:38.904Z,99.90
2019-03-27T06:03:46.647Z,99.90
2019-03-27T06:06:35.091Z,99.90
2019-03-27T06:09:23.563Z,99.90
2019-03-27T06:12:11.920Z,99.90
2019-03-27T06:15:00.358Z,99.90
2019-03-27T06:17:48.709Z,99.90
2019-03-27T06:20:37.051Z,99.90
2019-03-27T06:23:25.377Z,99.90
2019-03-27T06:26:13.860Z,99.90
2019-03-27T06:29:02.289Z,99.90
2019-03-27T06:31:50.650Z,99.90
2019-03-27T06:34:39.144Z,99.90
2019-03-27T06:37:27.529Z,99.90
2019-03-27T06:40:15.961Z,99.90
2019-03-27T06:43:04.809Z,99.90
2019-03-27T06:45:53.142Z,99.90
2019-03-27T06:48:41.482Z,99.90
2019-03-27T06:51:39.543Z,99.90
2019-03-27T06:54:12.452Z,99.90
2019-03-27T06:56:53.368Z,99.90
2019-03-27T06:59:34.308Z,99.90
2019-03-27T07:02:15.167Z,99.90
2019-03-27T07:04:56.368Z,99.90
2019-03-27T07:07:37.518Z,99.90
2019-03-27T07:10:27.592Z,99.90
2019-03-27T07:13:15.942Z,99.90
2019-03-27T07:16:04.394Z,99.90
2019-03-27T07:18:52.770Z,99.90
2019-03-27T07:21:41.077Z,99.90
2019-03-27T07:24:29.419Z,99.90
2019-03-27T07:27:17.745Z,99.90
2019-03-27T07:29:47.289Z,99.90
2019-03-27T07:32:35.694Z,99.90
2019-03-27T07:35:24.048Z,99.90
2019-03-27T07:38:12.372Z,99.90
2019-03-27T07:41:00.802Z,99.90
2019-03-27T07:43:49.204Z,99.90
2019-03-27T07:46:37.564Z,99.90
2019-03-27T07:49:25.901Z,99.90
2019-03-27T07:52:14.217Z,99.90
2019-03-27T07:54:55.056Z,99.90
2019-03-27T07:57:36.271Z,99.90
2019-03-27T08:00:17.282Z,99.90
2019-03-27T08:02:58.085Z,99.90
2019-03-27T08:05:39.135Z,99.90
2019-03-27T08:08:20.169Z,99.90
2019-03-27T08:11:01.119Z,99.90
2019-03-27T08:13:42.015Z,99.90
2019-03-27T08:16:22.831Z,99.90
2019-03-27T08:19:07.651Z,99.90
2019-03-27T08:21:47.373Z,99.90
2019-03-27T08:27:14.664Z,99.90
2019-03-27T08:29:55.756Z,99.90
2019-03-27T08:32:37.604Z,99.90
2019-03-27T08:35:18.104Z,99.90
2019-03-27T08:37:58.501Z,99.90
2019-03-27T08:40:39.313Z,99.90
2019-03-27T08:43:22.076Z,99.90
2019-03-27T08:46:03.139Z,99.90
2019-03-27T08:48:43.663Z,99.90
2019-03-27T08:51:24.356Z,99.90
2019-03-27T08:54:05.425Z,99.90
2019-03-27T08:56:46.321Z,99.90
2019-03-27T08:59:27.233Z,99.90
2019-03-27T09:02:07.864Z,99.90
2019-03-27T09:04:48.546Z,99.90
2019-03-27T09:07:29.272Z,99.90
2019-03-27T09:09:58.820Z,99.90
2019-03-27T09:12:47.180Z,99.90
2019-03-27T09:15:35.522Z,99.90
2019-03-27T09:18:26.658Z,99.90
2019-03-27T09:21:15.010Z,99.90
2019-03-27T09:24:03.408Z,99.90
2019-03-27T09:26:51.733Z,99.90
2019-03-27T09:29:40.032Z,99.90
2019-03-27T09:32:28.349Z,99.90
2019-03-27T09:35:16.871Z,99.90
2019-03-27T09:38:05.193Z,99.90
2019-03-27T09:40:53.557Z,99.90
2019-03-27T09:43:41.850Z,99.90
2019-03-27T09:46:30.172Z,99.90
2019-03-27T09:49:18.473Z,99.90
2019-03-27T09:52:06.796Z,99.90
2019-03-27T09:54:55.194Z,99.90
2019-03-27T09:57:35.695Z,99.90
2019-03-27T10:00:17.021Z,99.90
2019-03-27T10:02:57.954Z,99.90
2019-03-27T10:05:38.353Z,99.90
2019-03-27T10:08:19.172Z,99.90
2019-03-27T10:10:59.769Z,99.90
2019-03-27T10:13:40.468Z,99.90
2019-03-27T10:16:21.193Z,99.90
2019-03-27T10:19:02.052Z,99.90
2019-03-27T10:21:44.158Z,99.90
2019-03-27T10:24:25.271Z,99.90
2019-03-27T10:27:06.432Z,99.90
2019-03-27T10:29:47.396Z,99.90
2019-03-27T10:32:28.250Z,99.90
2019-03-27T10:35:09.148Z,99.90
2019-03-27T10:37:49.779Z,99.90
2019-03-27T10:40:30.346Z,99.90
2019-03-27T10:43:12.258Z,99.90
2019-03-27T10:45:52.686Z,99.90
2019-03-27T10:48:33.425Z,99.90
2019-03-27T10:51:12.801Z,99.90
2019-03-27T10:54:01.259Z,99.90
2019-03-27T10:56:49.625Z,99.90
2019-03-27T10:59:37.990Z,99.90
2019-03-27T11:02:26.453Z,99.90
2019-03-27T11:05:14.843Z,99.90
2019-03-27T11:08:03.262Z,99.90
2019-03-27T11:10:51.709Z,99.90
2019-03-27T11:13:40.009Z,99.90
2019-03-27T11:16:28.321Z,99.90
2019-03-27T11:19:16.677Z,99.90
2019-03-27T11:22:05.077Z,99.90
2019-03-27T11:24:53.397Z,99.90
2019-03-27T11:27:41.717Z,99.90
2019-03-27T11:30:49.003Z,99.90
2019-03-27T11:33:37.405Z,99.90
2019-03-27T11:36:25.730Z,99.90
2019-03-27T11:39:14.110Z,99.90
2019-03-27T11:42:02.424Z,99.90
2019-03-27T11:44:50.729Z,99.90
2019-03-27T11:47:39.046Z,99.90
2019-03-27T11:50:20.326Z,99.50
2019-03-27T11:53:00.916Z,99.70
2019-03-27T11:55:41.450Z,99.80
2019-03-27T11:58:21.982Z,99.50
2019-03-27T12:01:03.271Z,98.60
2019-03-27T12:03:44.104Z,97.70
2019-03-27T12:06:24.715Z,97.70
2019-03-27T12:09:05.385Z,98.40
2019-03-27T12:11:46.147Z,98.60
2019-03-27T12:14:26.524Z,98.10
2019-03-27T12:17:06.974Z,97.60
2019-03-27T12:19:47.871Z,98.10
2019-03-27T12:22:29.084Z,98.10
2019-03-27T12:25:09.713Z,97.70
2019-03-27T12:27:39.098Z,97.80
2019-03-27T12:30:27.684Z,98.00
2019-03-27T12:33:33.636Z,98.40
2019-03-27T12:36:29.189Z,98.60
2019-03-27T12:39:20.558Z,98.10
2019-03-27T12:42:09.021Z,97.90
2019-03-27T12:44:57.351Z,98.00
2019-03-27T12:47:26.800Z,97.90
2019-03-27T12:50:01.985Z,97.70
2019-03-27T12:52:31.475Z,98.20
2019-03-27T12:55:00.812Z,98.20
2019-03-27T12:57:30.292Z,97.00
2019-03-27T12:59:59.711Z,96.70
2019-03-27T13:02:29.172Z,96.80
2019-03-27T13:04:58.494Z,96.10
2019-03-27T13:07:27.911Z,96.40
2019-03-27T13:09:57.323Z,96.10
2019-03-27T13:12:26.665Z,95.90
2019-03-27T13:14:55.985Z,96.00
2019-03-27T13:17:25.313Z,95.40
2019-03-27T13:19:54.656Z,95.30
2019-03-27T13:22:24.014Z,95.20
2019-03-27T13:24:53.380Z,94.70
2019-03-27T13:27:22.716Z,94.60
2019-03-27T13:29:52.064Z,94.30
2019-03-27T13:32:21.453Z,94.80
2019-03-27T13:34:50.873Z,95.10
2019-03-27T13:37:20.233Z,95.30
2019-03-27T13:39:49.738Z,95.50
2019-03-27T13:42:19.138Z,95.90
2019-03-27T13:44:48.484Z,95.80
2019-03-27T13:47:32.350Z,95.80
2019-03-27T13:50:01.809Z,96.30
2019-03-27T13:52:31.141Z,96.30
2019-03-27T13:55:00.731Z,96.30
2019-03-27T13:57:30.355Z,96.30
2019-03-27T13:59:59.805Z,96.70
2019-03-27T14:02:29.233Z,96.80
2019-03-27T14:04:58.708Z,97.20
2019-03-27T14:07:28.059Z,97.80
2019-03-27T14:09:57.484Z,98.20
2019-03-27T14:12:26.979Z,98.50
2019-03-27T14:14:56.452Z,98.50
2019-03-27T14:17:25.792Z,98.70
2019-03-27T14:19:55.239Z,98.60
2019-03-27T14:22:24.761Z,98.50
2019-03-27T14:24:54.289Z,98.60
2019-03-27T14:27:23.721Z,98.60
2019-03-27T14:29:53.263Z,98.90
2019-03-27T14:32:23.120Z,99.20
2019-03-27T14:34:53.919Z,99.00
2019-03-27T14:37:23.656Z,98.70
2019-03-27T14:39:53.086Z,98.60
2019-03-27T14:42:22.440Z,98.60
2019-03-27T14:44:51.821Z,98.70
2019-03-27T14:47:21.281Z,98.60
2019-03-27T14:49:50.673Z,98.90
2019-03-27T14:52:22.231Z,99.00
2019-03-27T14:54:51.738Z,99.20
2019-03-27T14:57:21.209Z,99.40
2019-03-27T14:59:50.796Z,99.20
2019-03-27T15:02:20.209Z,98.60
2019-03-27T15:04:52.318Z,98.60
2019-03-27T15:07:21.769Z,99.10
2019-03-27T15:09:51.140Z,98.90
2019-03-27T15:12:20.594Z,99.10
2019-03-27T15:14:50.080Z,98.80
2019-03-27T15:17:19.617Z,98.70
2019-03-27T15:19:49.030Z,98.80
2019-03-27T15:22:22.699Z,98.50
2019-03-27T15:24:49.533Z,99.10
2019-03-27T15:27:26.302Z,98.50
2019-03-27T15:29:56.034Z,97.80
2019-03-27T15:32:25.405Z,97.60
2019-03-27T15:34:54.770Z,97.80
2019-03-27T15:37:24.103Z,97.50
2019-03-27T15:39:53.488Z,97.30
2019-03-27T15:42:23.016Z,97.60
2019-03-27T15:44:52.689Z,97.60
2019-03-27T15:47:22.218Z,97.50
2019-03-27T15:49:51.608Z,97.50
2019-03-27T15:52:20.944Z,97.40
2019-03-27T15:54:50.399Z,97.40
2019-03-27T15:57:19.918Z,97.40
2019-03-27T15:59:49.330Z,97.50
2019-03-27T16:02:18.805Z,97.40
2019-03-27T16:04:48.339Z,97.50
2019-03-27T16:07:17.730Z,97.60
2019-03-27T16:09:47.223Z,97.50
2019-03-27T16:12:16.686Z,97.60
2019-03-27T16:14:46.087Z,97.80
2019-03-27T16:17:15.497Z,98.20
2019-03-27T16:19:45.052Z,98.20
2019-03-27T16:22:22.515Z,98.20
2019-03-27T16:25:09.909Z,98.50
2019-03-27T16:27:39.484Z,98.40
2019-03-27T16:30:10.005Z,98.90
2019-03-27T16:32:39.375Z,99.10
2019-03-27T16:35:08.918Z,99.30
2019-03-27T16:38:16.800Z,99.60
2019-03-27T16:40:48.113Z,99.70
2019-03-27T16:43:40.178Z,99.70
2019-03-27T16:46:10.162Z,99.90
2019-03-27T16:48:39.618Z,99.90
2019-03-27T16:51:09.311Z,99.90
2019-03-27T16:53:38.713Z,99.90
2019-03-27T16:56:08.420Z,99.90
2019-03-27T16:58:37.918Z,99.90
2019-03-27T17:01:07.350Z,99.90
2019-03-27T17:03:49.101Z,99.90
2019-03-27T17:06:18.641Z,99.90
2019-03-27T17:08:48.052Z,99.90
2019-03-27T17:11:17.428Z,99.90
2019-03-27T17:13:46.765Z,99.90
2019-03-27T17:16:16.174Z,99.90
2019-03-27T17:18:45.521Z,99.90
2019-03-27T17:21:14.972Z,99.90
2019-03-27T17:23:44.380Z,99.90
2019-03-27T17:26:13.883Z,99.90
2019-03-27T17:28:43.247Z,99.90
2019-03-27T17:31:13.003Z,99.90
2019-03-27T17:33:42.748Z,99.90
2019-03-27T17:36:12.134Z,99.90
2019-03-27T17:38:41.545Z,99.90
2019-03-27T17:41:11.053Z,99.90
2019-03-27T17:43:40.497Z,99.90
2019-03-27T17:46:10.087Z,99.90
2019-03-27T17:48:39.503Z,99.90
2019-03-27T17:51:09.064Z,99.90
2019-03-27T17:53:38.447Z,99.90
2019-03-27T17:56:07.836Z,99.90
2019-03-27T17:58:37.322Z,99.90
2019-03-27T18:01:06.921Z,99.90
2019-03-27T18:03:36.337Z,99.90
2019-03-27T18:06:05.877Z,99.90
2019-03-27T18:08:35.229Z,99.90
2019-03-27T18:11:07.893Z,99.90
2019-03-27T18:13:35.725Z,99.90
2019-03-27T18:16:06.479Z,99.90
2019-03-27T18:18:36.118Z,99.90
2019-03-27T18:21:07.042Z,99.90
2019-03-27T18:23:45.957Z,99.90
2019-03-27T18:26:08.339Z,99.90
2019-03-27T18:28:38.032Z,99.90
2019-03-27T18:31:07.456Z,99.90
2019-03-27T18:33:36.871Z,99.90
2019-03-27T18:36:06.456Z,99.90
2019-03-27T18:38:36.903Z,99.90
2019-03-27T18:41:06.447Z,99.90
2019-03-27T18:43:38.621Z,99.90
2019-03-27T18:46:08.122Z,99.90
2019-03-27T18:48:37.484Z,99.90
2019-03-27T18:51:06.886Z,99.90
2019-03-27T18:53:36.303Z,99.90
2019-03-27T18:56:05.723Z,99.90
2019-03-27T18:58:35.200Z,99.90
2019-03-27T19:01:05.105Z,99.90
2019-03-27T19:03:34.458Z,99.90
2019-03-27T19:06:03.994Z,99.90
2019-03-27T19:08:33.474Z,99.90
2019-03-27T19:11:02.900Z,99.90
2019-03-27T19:13:32.274Z,99.90
2019-03-27T19:16:01.623Z,99.90
2019-03-27T19:18:31.081Z,99.90
2019-03-27T19:21:00.489Z,99.90
2019-03-27T19:23:29.843Z,99.90
2019-03-27T19:25:59.213Z,99.90
2019-03-27T19:28:28.559Z,99.90
2019-03-27T19:30:57.994Z,99.90
2019-03-27T19:33:27.443Z,99.90
2019-03-27T19:35:56.902Z,99.90
2019-03-27T19:38:27.994Z,99.90
2019-03-27T19:40:57.397Z,99.90
2019-03-27T19:43:26.973Z,99.90
2019-03-27T19:45:57.597Z,99.90
2019-03-27T19:48:27.701Z,99.90
2019-03-27T19:50:57.073Z,99.90
2019-03-27T19:53:26.514Z,99.90
2019-03-27T19:55:56.026Z,99.90
2019-03-27T19:58:25.401Z,99.90
2019-03-27T20:00:54.929Z,99.90
2019-03-27T20:03:24.310Z,99.90
2019-03-27T20:05:53.937Z,99.90
2019-03-27T20:08:23.463Z,99.90
2019-03-27T20:10:53.016Z,99.90
2019-03-27T20:13:22.555Z,99.90
2019-03-27T20:15:52.163Z,99.90
2019-03-27T20:18:21.501Z,99.90
2019-03-27T20:20:51.119Z,99.90
2019-03-27T20:23:20.603Z,99.90
2019-03-27T20:25:52.955Z,99.90
2019-03-27T20:28:22.346Z,99.90
2019-03-27T20:30:51.821Z,99.90
2019-03-27T20:33:21.195Z,99.90
2019-03-27T20:35:52.885Z,99.90
2019-03-27T20:38:22.318Z,99.90
2019-03-27T20:40:51.804Z,99.90
2019-03-27T20:43:21.215Z,99.90
2019-03-27T20:45:50.708Z,99.90
2019-03-27T20:48:20.251Z,99.90
2019-03-27T20:50:49.711Z,99.90
2019-03-27T20:53:19.176Z,99.90
2019-03-27T20:55:48.530Z,99.90
2019-03-27T20:58:17.896Z,99.90
2019-03-27T21:00:47.273Z,99.90
2019-03-27T21:03:16.672Z,99.90
2019-03-27T21:05:46.211Z,99.90
2019-03-27T21:08:15.633Z,99.90
2019-03-27T21:10:45.001Z,99.90
2019-03-27T21:13:14.325Z,99.90
2019-03-27T21:15:43.728Z,99.90
2019-03-27T21:18:13.185Z,99.90
2019-03-27T21:20:42.712Z,99.90
2019-03-27T21:23:12.174Z,99.90
2019-03-27T21:25:41.528Z,99.90
2019-03-27T21:28:10.932Z,99.90
2019-03-27T21:30:40.301Z,99.90
2019-03-27T21:33:09.747Z,99.90
2019-03-27T21:35:39.306Z,99.90
2019-03-27T21:38:08.753Z,99.90
2019-03-27T21:40:38.219Z,99.90
2019-03-27T21:43:07.680Z,99.90
2019-03-27T21:45:37.038Z,99.90
2019-03-27T21:48:06.494Z,99.90
2019-03-27T21:50:35.909Z,99.90
2019-03-27T21:53:05.375Z,99.90
2019-03-27T21:55:42.801Z,99.90
2019-03-27T21:58:05.947Z,99.90
2019-03-27T22:00:40.036Z,99.90
2019-03-27T22:03:09.840Z,99.90
2019-03-27T22:05:39.363Z,99.90
2019-03-27T22:08:08.945Z,99.90
2019-03-27T22:10:38.334Z,99.90
2019-03-27T22:13:07.819Z,99.90
2019-03-27T22:15:37.278Z,99.90
2019-03-27T22:18:06.798Z,99.90
2019-03-27T22:20:39.348Z,99.90
2019-03-27T22:23:07.323Z,99.90
2019-03-27T22:25:36.914Z,99.90
2019-03-27T22:28:06.443Z,99.90
2019-03-27T22:30:35.883Z,99.90
2019-03-27T22:33:05.433Z,99.90
2019-03-27T22:35:34.955Z,99.90
2019-03-27T22:38:04.541Z,99.90
2019-03-27T22:40:33.960Z,99.90
2019-03-27T22:43:03.306Z,99.90
2019-03-27T22:45:32.804Z,99.90
2019-03-27T22:48:02.160Z,99.90
2019-03-27T22:50:31.554Z,99.90
2019-03-27T22:53:00.925Z,99.90
2019-03-27T22:55:30.373Z,99.90
2019-03-27T22:57:59.866Z,99.90
2019-03-27T23:00:48.399Z,99.90
2019-03-27T23:03:18.969Z,99.90
2019-03-27T23:05:48.750Z,99.90
2019-03-27T23:08:18.123Z,99.90
2019-03-27T23:10:47.558Z,99.90
2019-03-27T23:13:17.101Z,99.90
2019-03-27T23:15:46.664Z,99.90
2019-03-27T23:18:16.068Z,99.90
2019-03-27T23:20:45.401Z,99.90
2019-03-27T23:23:15.341Z,99.90
2019-03-27T23:25:44.733Z,99.90
2019-03-27T23:28:14.168Z,99.90
2019-03-27T23:30:43.625Z,99.90
2019-03-27T23:33:13.024Z,99.90
2019-03-27T23:35:42.469Z,99.90
2019-03-27T23:38:12.014Z,99.90
2019-03-27T23:40:41.389Z,99.90
2019-03-27T23:43:10.720Z,99.90
2019-03-27T23:45:40.156Z,99.90
2019-03-27T23:48:09.513Z,99.90
2019-03-27T23:50:38.941Z,99.90
2019-03-27T23:53:08.333Z,99.90
2019-03-27T23:55:37.745Z,99.90
2019-03-27T23:58:07.492Z,99.90
